createdAt,value
2019-06-07T00:01:50.233Z,62.70
2019-06-07T00:04:26.021Z,62.80
2019-06-07T00:06:58.429Z,62.70
2019-06-07T00:09:31.714Z,62.90
2019-06-07T00:12:09.158Z,62.90
2019-06-07T00:14:40.436Z,63.20
2019-06-07T00:17:15.378Z,63.40
2019-06-07T00:19:46.491Z,63.40
2019-06-07T00:22:31.531Z,63.50
2019-06-07T00:24:52.852Z,63.50
2019-06-07T00:27:25.028Z,63.50
2019-06-07T00:29:57.401Z,63.40
2019-06-07T00:32:29.725Z,63.10
2019-06-07T00:35:02.462Z,62.80
2019-06-07T00:37:34.695Z,63.00
2019-06-07T00:40:16.217Z,62.90
2019-06-07T00:42:41.129Z,62.90
2019-06-07T00:45:17.990Z,63.00
2019-06-07T00:47:47.605Z,63.30
2019-06-07T00:50:23.450Z,63.10
2019-06-07T00:55:28.467Z,62.90
2019-06-07T00:58:00.967Z,63.20
2019-06-07T01:00:33.346Z,63.20
2019-06-07T01:03:05.606Z,63.10
2019-06-07T01:05:38.112Z,63.40
2019-06-07T01:08:10.288Z,63.50
2019-06-07T01:10:53.506Z,63.70
2019-06-07T01:13:18.818Z,63.80
2019-06-07T01:15:50.980Z,63.80
2019-06-07T01:18:37.241Z,63.80
2019-06-07T01:20:57.388Z,63.50
2019-06-07T01:26:03.737Z,63.20
2019-06-07T01:28:36.083Z,63.50
2019-06-07T01:31:08.285Z,63.20
2019-06-07T01:33:50.963Z,63.10
2019-06-07T01:36:14.526Z,63.30
2019-06-07T01:38:46.766Z,63.20
2019-06-07T01:41:22.021Z,64.00
2019-06-07T01:43:53.080Z,62.90
2019-06-07T01:46:26.808Z,62.90
2019-06-07T01:48:59.153Z,62.60
2019-06-07T01:51:31.579Z,62.70
2019-06-07T01:54:48.802Z,62.50
2019-06-07T01:56:37.755Z,63.40
2019-06-07T01:59:10.012Z,62.90
2019-06-07T02:01:42.338Z,62.60
2019-06-07T02:04:14.591Z,62.60
2019-06-07T02:06:46.785Z,62.50
2019-06-07T02:09:18.959Z,62.80
2019-06-07T02:11:51.233Z,63.30
2019-06-07T02:14:27.376Z,63.50
2019-06-07T02:16:57.366Z,63.60
2019-06-07T02:19:31.690Z,63.60
2019-06-07T02:22:03.632Z,63.50
2019-06-07T02:24:36.640Z,63.80
2019-06-07T02:27:09.097Z,63.40
2019-06-07T02:29:41.324Z,63.40
2019-06-07T02:32:13.505Z,63.70
2019-06-07T02:34:45.832Z,63.60
2019-06-07T02:37:18.171Z,63.80
2019-06-07T02:39:50.409Z,64.00
2019-06-07T02:42:26.113Z,64.20
2019-06-07T02:44:57.029Z,64.20
2019-06-07T02:47:32.351Z,63.90
2019-06-07T02:50:03.563Z,63.90
2019-06-07T02:52:40.198Z,63.90
2019-06-07T02:55:10.123Z,63.70
2019-06-07T02:57:43.164Z,63.90
2019-06-07T03:02:56.296Z,64.10
2019-06-07T03:05:30.548Z,64.10
2019-06-07T03:08:03.290Z,64.20
2019-06-07T03:10:41.603Z,63.80
2019-06-07T03:13:12.873Z,63.70
2019-06-07T03:15:50.240Z,63.90
2019-06-07T03:18:41.537Z,63.70
2019-06-07T03:21:17.101Z,64.00
2019-06-07T03:23:50.805Z,64.10
2019-06-07T03:26:24.596Z,64.30
2019-06-07T03:28:56.887Z,64.40
2019-06-07T03:31:35.294Z,64.80
2019-06-07T03:34:03.374Z,65.00
2019-06-07T03:36:39.202Z,65.00
2019-06-07T03:39:09.762Z,65.10
2019-06-07T03:42:02.320Z,65.20
2019-06-07T03:44:16.750Z,65.40
2019-06-07T03:46:49.166Z,65.60
2019-06-07T03:49:21.558Z,65.60
2019-06-07T03:51:53.781Z,65.60
2019-06-07T03:54:27.170Z,65.60
2019-06-07T03:56:59.408Z,65.70
2019-06-07T03:59:36.221Z,65.90
2019-06-07T04:02:05.518Z,65.90
2019-06-07T04:04:39.565Z,66.00
2019-06-07T04:07:11.885Z,65.90
2019-06-07T04:09:44.319Z,66.00
2019-06-07T04:12:16.641Z,65.90
2019-06-07T04:14:48.922Z,65.70
2019-06-07T04:17:21.262Z,65.90
2019-06-07T04:19:53.721Z,65.70
2019-06-07T04:22:25.934Z,65.50
2019-06-07T04:24:59.689Z,65.50
2019-06-07T04:27:33.081Z,65.50
2019-06-07T04:30:08.252Z,65.60
2019-06-07T04:32:44.944Z,65.90
2019-06-07T04:35:14.813Z,65.90
2019-06-07T04:37:47.099Z,65.80
2019-06-07T04:40:19.407Z,65.50
2019-06-07T04:42:51.706Z,65.80
2019-06-07T04:45:33.724Z,65.80
2019-06-07T04:47:59.120Z,65.50
2019-06-07T04:50:34.305Z,65.80
2019-06-07T04:53:06.436Z,64.10
2019-06-07T04:55:41.616Z,64.10
2019-06-07T04:58:12.737Z,64.10
2019-06-07T05:00:52.431Z,63.40
2019-06-07T05:03:19.226Z,63.40
2019-06-07T05:05:51.726Z,63.20
2019-06-07T05:08:28.496Z,63.40
2019-06-07T05:10:58.213Z,63.60
2019-06-07T05:13:35.065Z,63.40
2019-06-07T05:16:04.717Z,63.10
2019-06-07T05:18:40.132Z,63.50
2019-06-07T05:21:11.042Z,63.40
2019-06-07T05:24:05.248Z,62.20
2019-06-07T05:26:17.325Z,62.70
2019-06-07T05:28:49.680Z,62.90
2019-06-07T05:31:22.100Z,62.10
2019-06-07T05:33:54.274Z,61.80
2019-06-07T05:36:26.819Z,62.00
2019-06-07T05:38:59.222Z,62.40
2019-06-07T05:41:32.295Z,62.40
2019-06-07T05:44:12.789Z,62.30
2019-06-07T05:46:41.976Z,62.30
2019-06-07T05:49:14.734Z,62.40
2019-06-07T05:51:47.020Z,62.10
2019-06-07T05:54:19.283Z,62.20
2019-06-07T05:56:51.568Z,62.00
2019-06-07T05:59:23.853Z,62.10
2019-06-07T06:02:03.204Z,61.90
2019-06-07T06:04:33.809Z,61.80
2019-06-07T06:07:16.271Z,61.80
2019-06-07T06:09:48.781Z,62.00
2019-06-07T06:12:34.606Z,62.10
2019-06-07T06:14:59.125Z,62.50
2019-06-07T06:17:32.114Z,62.50
2019-06-07T06:20:04.792Z,62.30
2019-06-07T06:22:43.043Z,62.40
2019-06-07T06:28:10.822Z,62.60
2019-06-07T06:30:24.014Z,62.70
2019-06-07T06:32:58.536Z,63.20
2019-06-07T06:35:33.757Z,62.40
2019-06-07T06:38:06.025Z,62.70
2019-06-07T06:40:42.233Z,62.30
2019-06-07T06:43:12.558Z,61.80
2019-06-07T06:45:49.750Z,61.70
2019-06-07T06:48:18.851Z,61.80
2019-06-07T06:50:54.149Z,61.60
2019-06-07T06:53:26.434Z,61.40
2019-06-07T06:56:00.333Z,61.30
2019-06-07T06:59:18.645Z,61.00
2019-06-07T07:01:07.338Z,60.40
2019-06-07T07:04:00.131Z,60.60
2019-06-07T07:06:26.025Z,60.60
2019-06-07T07:08:50.750Z,60.40
2019-06-07T07:11:23.140Z,60.60
2019-06-07T07:13:57.066Z,60.70
2019-06-07T07:16:29.479Z,60.80
2019-06-07T07:19:02.673Z,61.20
2019-06-07T07:21:34.989Z,61.00
2019-06-07T07:24:20.942Z,60.40
2019-06-07T07:26:45.223Z,60.50
2019-06-07T07:29:15.440Z,60.80
2019-06-07T07:31:50.832Z,60.90
2019-06-07T07:34:33.681Z,61.10
2019-06-07T07:36:59.641Z,60.80
2019-06-07T07:39:30.277Z,60.30
2019-06-07T07:42:20.005Z,59.70
2019-06-07T07:44:36.680Z,59.70
2019-06-07T07:47:08.909Z,60.20
2019-06-07T07:49:42.193Z,59.70
2019-06-07T07:52:14.382Z,59.60
2019-06-07T07:54:46.826Z,59.70
2019-06-07T07:57:21.567Z,59.60
2019-06-07T08:00:08.249Z,59.20
2019-06-07T08:02:28.310Z,58.80
2019-06-07T08:05:25.496Z,58.70
2019-06-07T08:07:36.174Z,58.50
2019-06-07T08:10:09.056Z,59.00
2019-06-07T08:13:00.775Z,59.30
2019-06-07T08:15:15.976Z,59.30
2019-06-07T08:17:53.978Z,59.30
2019-06-07T08:20:22.626Z,59.40
2019-06-07T08:22:57.789Z,59.10
2019-06-07T08:25:28.982Z,58.50
2019-06-07T08:28:01.368Z,57.90
2019-06-07T08:31:00.062Z,58.20
2019-06-07T08:33:25.231Z,57.70
2019-06-07T08:38:29.306Z,57.40
2019-06-07T08:41:01.239Z,57.30
2019-06-07T08:43:27.666Z,57.40
2019-06-07T08:46:06.474Z,57.50
2019-06-07T08:48:35.389Z,57.00
2019-06-07T08:51:08.957Z,57.10
2019-06-07T08:53:41.617Z,56.50
2019-06-07T08:56:13.986Z,56.50
2019-06-07T08:58:46.261Z,55.70
2019-06-07T09:01:18.857Z,55.20
2019-06-07T09:03:52.087Z,55.10
2019-06-07T09:07:01.995Z,55.60
2019-06-07T09:09:02.003Z,55.20
2019-06-07T09:11:35.018Z,55.10
2019-06-07T09:14:09.143Z,54.30
2019-06-07T09:16:41.870Z,54.20
2019-06-07T09:19:14.084Z,54.50
2019-06-07T09:21:46.474Z,54.30
2019-06-07T09:24:18.728Z,53.90
2019-06-07T09:26:50.995Z,54.30
2019-06-07T09:29:23.483Z,53.50
2019-06-07T09:31:56.165Z,53.50
2019-06-07T09:34:32.206Z,52.90
2019-06-07T09:37:54.752Z,53.20
2019-06-07T09:39:38.877Z,53.00
2019-06-07T09:42:12.668Z,52.30
2019-06-07T09:44:50.225Z,52.80
2019-06-07T09:47:32.655Z,53.00
2019-06-07T09:50:02.348Z,52.20
2019-06-07T09:52:56.363Z,52.40
2019-06-07T09:55:22.925Z,52.30
2019-06-07T09:57:41.355Z,52.00
2019-06-07T10:00:38.717Z,52.50
2019-06-07T10:02:49.523Z,52.70
2019-06-07T10:05:21.910Z,52.30
2019-06-07T10:08:07.561Z,51.80
2019-06-07T10:13:04.381Z,51.80
2019-06-07T10:15:37.042Z,52.00
2019-06-07T10:18:09.475Z,51.90
2019-06-07T10:20:42.826Z,51.50
2019-06-07T10:23:15.189Z,51.50
2019-06-07T10:25:47.657Z,51.30
2019-06-07T10:28:19.948Z,51.00
2019-06-07T10:30:52.506Z,50.50
2019-06-07T10:33:25.894Z,50.50
2019-06-07T10:35:58.194Z,51.00
2019-06-07T10:38:30.597Z,50.90
2019-06-07T10:41:02.913Z,50.80
2019-06-07T10:43:35.471Z,50.10
2019-06-07T10:46:07.836Z,50.10
2019-06-07T10:48:40.153Z,50.10
2019-06-07T10:51:14.734Z,50.20
2019-06-07T10:53:46.908Z,49.40
2019-06-07T10:56:19.537Z,49.40
2019-06-07T10:58:51.951Z,50.40
2019-06-07T11:01:24.271Z,49.90
2019-06-07T11:03:56.581Z,49.00
2019-06-07T11:06:29.176Z,49.90
2019-06-07T11:09:03.800Z,50.00
2019-06-07T11:11:36.226Z,49.70
2019-06-07T11:14:08.810Z,48.70
2019-06-07T11:16:40.820Z,48.40
2019-06-07T11:19:16.322Z,48.90
2019-06-07T11:21:47.247Z,48.30
2019-06-07T11:24:24.426Z,47.90
2019-06-07T11:26:53.843Z,47.50
2019-06-07T11:29:26.378Z,48.10
2019-06-07T11:32:00.579Z,47.70
2019-06-07T11:34:32.908Z,48.20
2019-06-07T11:37:07.210Z,47.40
2019-06-07T11:39:39.429Z,47.40
2019-06-07T11:42:12.042Z,47.50
2019-06-07T11:44:56.215Z,47.90
2019-06-07T11:47:21.720Z,47.80
2019-06-07T11:49:54.048Z,46.80
2019-06-07T11:52:26.406Z,47.20
2019-06-07T11:55:02.801Z,46.70
2019-06-07T11:57:35.285Z,46.40
2019-06-07T12:00:11.487Z,47.00
2019-06-07T12:02:44.041Z,46.90
2019-06-07T12:05:19.027Z,46.70
2019-06-07T12:07:50.729Z,46.40
2019-06-07T12:10:24.591Z,47.00
2019-06-07T12:12:57.143Z,47.10
2019-06-07T12:15:29.905Z,46.30
2019-06-07T12:18:02.722Z,45.60
2019-06-07T12:20:35.053Z,44.70
2019-06-07T12:23:07.427Z,44.80
2019-06-07T12:25:39.693Z,45.30
2019-06-07T12:28:12.680Z,45.00
2019-06-07T12:30:45.200Z,45.10
2019-06-07T12:33:17.794Z,45.00
2019-06-07T12:35:50.213Z,44.60
2019-06-07T12:38:23.156Z,44.30
2019-06-07T12:40:57.865Z,45.00
2019-06-07T12:43:29.560Z,44.30
2019-06-07T12:46:01.876Z,44.60
2019-06-07T12:48:34.468Z,44.50
2019-06-07T12:51:07.136Z,45.10
2019-06-07T12:53:39.455Z,44.20
2019-06-07T12:56:11.933Z,44.40
2019-06-07T12:58:44.303Z,43.20
2019-06-07T13:01:18.092Z,44.70
2019-06-07T13:03:50.605Z,44.10
2019-06-07T13:06:23.716Z,44.10
2019-06-07T13:08:56.338Z,44.40
2019-06-07T13:11:31.561Z,43.80
2019-06-07T13:14:02.737Z,42.90
2019-06-07T13:16:35.101Z,43.00
2019-06-07T13:19:07.512Z,43.40
2019-06-07T13:21:39.829Z,42.60
2019-06-07T13:24:12.327Z,42.30
2019-06-07T13:26:45.110Z,42.20
2019-06-07T13:29:18.754Z,42.80
2019-06-07T13:31:51.289Z,42.70
2019-06-07T13:34:24.301Z,41.80
2019-06-07T13:36:56.663Z,41.80
2019-06-07T13:39:29.843Z,41.30
2019-06-07T13:42:02.113Z,41.20
2019-06-07T13:44:34.375Z,41.50
2019-06-07T13:47:06.782Z,41.60
2019-06-07T13:49:39.128Z,41.40
2019-06-07T13:52:11.570Z,41.30
2019-06-07T13:54:43.856Z,40.40
2019-06-07T13:57:17.928Z,40.90
2019-06-07T13:59:50.325Z,41.50
2019-06-07T14:02:23.640Z,40.30
2019-06-07T14:04:56.810Z,41.40
2019-06-07T14:07:30.066Z,41.50
2019-06-07T14:10:03.165Z,41.10
2019-06-07T14:12:35.665Z,40.60
2019-06-07T14:15:08.475Z,40.50
2019-06-07T14:17:40.942Z,40.70
2019-06-07T14:20:14.509Z,40.40
2019-06-07T14:22:48.558Z,40.00
2019-06-07T14:25:20.988Z,40.40
2019-06-07T14:27:53.374Z,40.00
2019-06-07T14:30:26.107Z,40.00
2019-06-07T14:33:01.642Z,39.90
2019-06-07T14:35:34.178Z,40.80
2019-06-07T14:38:07.447Z,40.60
2019-06-07T14:40:39.742Z,40.40
2019-06-07T14:43:13.100Z,39.80
2019-06-07T14:45:45.414Z,39.10
2019-06-07T14:48:17.708Z,39.50
2019-06-07T14:50:51.150Z,40.20
2019-06-07T14:53:24.499Z,39.80
2019-06-07T14:55:57.289Z,39.80
2019-06-07T14:58:29.494Z,39.90
2019-06-07T15:01:01.916Z,40.20
2019-06-07T15:03:34.831Z,40.00
2019-06-07T15:06:07.207Z,39.30
2019-06-07T15:08:39.589Z,39.50
2019-06-07T15:11:11.799Z,39.30
2019-06-07T15:13:44.435Z,39.10
2019-06-07T15:16:16.653Z,39.10
2019-06-07T15:18:49.642Z,39.30
2019-06-07T15:21:22.107Z,39.60
2019-06-07T15:23:55.523Z,39.60
2019-06-07T15:26:28.348Z,39.40
2019-06-07T15:29:00.731Z,39.00
2019-06-07T15:31:34.564Z,38.90
2019-06-07T15:34:07.117Z,38.40
2019-06-07T15:36:39.337Z,38.80
2019-06-07T15:39:11.566Z,38.90
2019-06-07T15:41:43.851Z,39.00
2019-06-07T15:44:16.086Z,39.00
2019-06-07T15:46:48.271Z,39.20
2019-06-07T15:49:20.646Z,39.00
2019-06-07T15:51:52.906Z,38.70
2019-06-07T15:54:25.335Z,39.30
2019-06-07T15:57:00.694Z,38.80
2019-06-07T15:59:35.839Z,39.10
2019-06-07T16:02:10.201Z,38.90
2019-06-07T16:04:42.494Z,38.70
2019-06-07T16:07:14.796Z,38.80
2019-06-07T16:09:47.150Z,38.60
2019-06-07T16:12:19.426Z,38.70
2019-06-07T16:14:51.841Z,38.70
2019-06-07T16:17:25.340Z,38.70
2019-06-07T16:19:57.815Z,38.90
2019-06-07T16:22:30.168Z,39.20
2019-06-07T16:25:02.621Z,38.90
2019-06-07T16:27:36.656Z,38.90
2019-06-07T16:30:09.885Z,39.20
2019-06-07T16:32:44.219Z,38.80
2019-06-07T16:35:16.906Z,39.20
2019-06-07T16:37:52.971Z,39.20
2019-06-07T16:40:26.622Z,40.10
2019-06-07T16:43:13.389Z,39.10
2019-06-07T16:45:32.900Z,39.30
2019-06-07T16:48:05.650Z,38.80
2019-06-07T16:50:38.755Z,38.80
2019-06-07T16:53:11.279Z,38.80
2019-06-07T16:55:44.813Z,38.60
2019-06-07T16:58:17.213Z,38.90
2019-06-07T17:00:49.889Z,39.30
2019-06-07T17:03:22.327Z,39.00
2019-06-07T17:05:54.618Z,39.20
2019-06-07T17:08:26.840Z,39.50
2019-06-07T17:10:59.054Z,39.50
2019-06-07T17:13:33.710Z,39.40
2019-06-07T17:16:05.583Z,39.60
2019-06-07T17:18:38.970Z,39.60
2019-06-07T17:21:11.278Z,39.90
2019-06-07T17:23:43.853Z,40.20
2019-06-07T17:26:16.145Z,40.20
2019-06-07T17:28:49.986Z,40.20
2019-06-07T17:31:22.403Z,40.30
2019-06-07T17:33:54.635Z,40.50
2019-06-07T17:36:27.002Z,40.50
2019-06-07T17:38:59.407Z,40.50
2019-06-07T17:41:41.877Z,40.70
2019-06-07T17:44:05.943Z,40.80
2019-06-07T17:46:38.283Z,41.00
2019-06-07T17:49:10.696Z,41.00
2019-06-07T17:51:44.117Z,40.90
2019-06-07T17:54:16.545Z,41.10
2019-06-07T17:56:48.785Z,41.30
2019-06-07T17:59:21.190Z,41.50
2019-06-07T18:02:13.425Z,41.70
2019-06-07T18:04:28.765Z,42.00
2019-06-07T18:07:01.185Z,42.00
2019-06-07T18:09:34.809Z,42.10
2019-06-07T18:12:07.230Z,42.30
2019-06-07T18:14:39.450Z,42.20
2019-06-07T18:17:11.806Z,42.40
2019-06-07T18:19:45.298Z,42.70
2019-06-07T18:22:18.430Z,42.60
2019-06-07T18:24:50.701Z,42.70
2019-06-07T18:27:23.098Z,43.00
2019-06-07T18:29:55.240Z,43.00
2019-06-07T18:32:27.522Z,43.00
2019-06-07T18:35:00.458Z,43.20
2019-06-07T18:37:32.961Z,43.40
2019-06-07T18:40:05.441Z,43.50
2019-06-07T18:42:37.903Z,43.70
2019-06-07T18:45:10.680Z,43.60
2019-06-07T18:47:42.932Z,43.60
2019-06-07T18:50:15.125Z,43.80
2019-06-07T18:52:48.662Z,43.80
2019-06-07T18:55:23.141Z,43.90
2019-06-07T18:57:56.454Z,44.00
2019-06-07T19:00:29.162Z,44.00
2019-06-07T19:03:15.516Z,44.20
2019-06-07T19:05:48.098Z,44.50
2019-06-07T19:08:20.430Z,44.40
2019-06-07T19:10:52.772Z,44.50
2019-06-07T19:13:25.250Z,44.60
2019-06-07T19:15:57.536Z,44.60
2019-06-07T19:18:30.068Z,44.80
2019-06-07T19:21:02.702Z,44.80
2019-06-07T19:23:38.570Z,44.90
2019-06-07T19:26:10.892Z,44.90
2019-06-07T19:28:43.339Z,45.10
2019-06-07T19:31:15.958Z,45.30
2019-06-07T19:33:49.479Z,45.30
2019-06-07T19:36:22.035Z,45.40
2019-06-07T19:38:56.311Z,45.60
2019-06-07T19:41:31.248Z,45.50
2019-06-07T19:44:03.624Z,45.70
2019-06-07T19:46:35.909Z,45.90
2019-06-07T19:49:08.373Z,45.90
2019-06-07T19:51:46.115Z,46.00
2019-06-07T19:54:25.702Z,46.20
2019-06-07T19:57:01.711Z,46.40
2019-06-07T19:59:35.145Z,46.30
2019-06-07T20:02:08.263Z,46.50
2019-06-07T20:04:40.740Z,46.50
2019-06-07T20:07:13.076Z,46.70
2019-06-07T20:09:45.531Z,46.90
2019-06-07T20:12:17.949Z,47.30
2019-06-07T20:14:53.750Z,47.50
2019-06-07T20:17:24.136Z,47.60
2019-06-07T20:19:56.482Z,47.50
2019-06-07T20:22:28.774Z,47.50
2019-06-07T20:25:01.089Z,47.50
2019-06-07T20:27:33.634Z,47.80
2019-06-07T20:30:06.802Z,47.60
2019-06-07T20:32:39.380Z,47.80
2019-06-07T20:35:12.294Z,47.80
2019-06-07T20:37:44.716Z,47.80
2019-06-07T20:40:24.398Z,48.00
2019-06-07T20:42:51.429Z,47.90
2019-06-07T20:45:32.962Z,48.10
2019-06-07T20:48:06.407Z,48.40
2019-06-07T20:50:39.076Z,48.40
2019-06-07T20:53:11.370Z,48.50
2019-06-07T20:55:43.609Z,47.50
2019-06-07T20:58:15.937Z,45.10
2019-06-07T21:00:48.346Z,44.30
2019-06-07T21:03:22.203Z,43.80
2019-06-07T21:05:54.704Z,44.10
2019-06-07T21:08:28.101Z,43.20
2019-06-07T21:11:01.570Z,42.90
2019-06-07T21:13:34.890Z,43.60
2019-06-07T21:16:08.269Z,44.80
2019-06-07T21:18:40.568Z,45.90
2019-06-07T21:21:12.985Z,46.80
2019-06-07T21:23:45.390Z,47.30
2019-06-07T21:26:17.656Z,48.20
2019-06-07T21:28:50.051Z,48.30
2019-06-07T21:31:22.496Z,48.80
2019-06-07T21:33:54.744Z,48.50
2019-06-07T21:36:26.986Z,49.10
2019-06-07T21:39:00.225Z,49.70
2019-06-07T21:41:33.788Z,49.70
2019-06-07T21:44:06.304Z,50.70
2019-06-07T21:46:38.929Z,50.80
2019-06-07T21:49:12.827Z,51.40
2019-06-07T21:51:45.145Z,50.60
2019-06-07T21:54:17.592Z,50.80
2019-06-07T21:56:49.936Z,50.90
2019-06-07T21:59:22.275Z,50.40
2019-06-07T22:01:54.645Z,50.90
2019-06-07T22:04:27.927Z,51.10
2019-06-07T22:07:00.625Z,50.90
2019-06-07T22:09:32.917Z,51.30
2019-06-07T22:12:06.017Z,50.30
2019-06-07T22:14:38.581Z,50.10
2019-06-07T22:17:11.021Z,49.70
2019-06-07T22:19:43.512Z,50.40
2019-06-07T22:22:15.672Z,50.10
2019-06-07T22:24:48.112Z,49.70
2019-06-07T22:27:20.426Z,49.60
2019-06-07T22:29:52.635Z,49.50
2019-06-07T22:32:24.965Z,49.70
2019-06-07T22:34:57.137Z,49.20
2019-06-07T22:37:29.459Z,50.00
2019-06-07T22:40:01.651Z,49.60
2019-06-07T22:42:34.038Z,49.70
2019-06-07T22:45:07.764Z,49.40
2019-06-07T22:47:40.495Z,50.10
2019-06-07T22:50:14.352Z,49.00
2019-06-07T22:52:46.737Z,47.90
2019-06-07T22:55:18.997Z,47.70
2019-06-07T22:57:58.504Z,47.30
2019-06-07T23:00:32.651Z,47.80
2019-06-07T23:03:05.251Z,47.80
2019-06-07T23:05:37.778Z,46.90
2019-06-07T23:08:11.022Z,47.60
2019-06-07T23:10:43.449Z,46.80
2019-06-07T23:13:15.677Z,46.80
2019-06-07T23:15:48.032Z,47.10
2019-06-07T23:18:20.277Z,47.50
2019-06-07T23:20:52.838Z,47.20
2019-06-07T23:23:25.313Z,47.10
2019-06-07T23:25:57.471Z,46.80
2019-06-07T23:28:29.783Z,46.80
2019-06-07T23:31:02.330Z,47.40
2019-06-07T23:33:34.656Z,47.40
2019-06-07T23:36:06.910Z,47.40
2019-06-07T23:38:39.262Z,47.50
2019-06-07T23:41:11.600Z,47.40
2019-06-07T23:43:43.876Z,47.60
2019-06-07T23:46:17.369Z,47.60
2019-06-07T23:48:49.712Z,48.20
2019-06-07T23:51:22.311Z,48.20
2019-06-07T23:53:54.745Z,48.10
2019-06-07T23:56:27.217Z,48.20
2019-06-07T23:58:59.553Z,48.50
